createdAt,value
2019-04-16T00:01:00.939Z,99.8520
2019-04-16T00:02:10.012Z,99.8947
2019-04-16T00:03:20.349Z,99.9725
2019-04-16T00:04:31.949Z,100.0000
2019-04-16T00:05:40.299Z,100.0000
2019-04-16T00:06:48.275Z,100.0000
2019-04-16T00:07:56.964Z,99.9344
2019-04-16T00:09:05.919Z,99.9863
2019-04-16T00:10:14.959Z,100.0000
2019-04-16T00:11:23.294Z,100.0000
2019-04-16T00:12:32.940Z,100.0000
2019-04-16T00:13:41.292Z,99.9939
2019-04-16T00:14:50.902Z,100.0000
2019-04-16T00:15:59.944Z,99.9847
2019-04-16T00:17:09.013Z,99.8352
2019-04-16T00:18:18.744Z,99.8245
2019-04-16T00:19:26.891Z,99.4278
2019-04-16T00:20:37.933Z,99.4369
2019-04-16T00:21:46.987Z,99.3484
2019-04-16T00:22:56.016Z,99.2447
2019-04-16T00:24:04.796Z,99.3988
2019-04-16T00:25:13.975Z,99.4873
2019-04-16T00:26:26.580Z,99.6094
2019-04-16T00:27:35.734Z,99.7696
2019-04-16T00:28:44.285Z,99.8062
2019-04-16T00:29:53.005Z,99.9710
2019-04-16T00:31:01.277Z,99.8581
2019-04-16T00:32:10.011Z,99.8337
2019-04-16T00:33:18.920Z,99.7055
2019-04-16T00:34:27.901Z,99.6933
2019-04-16T00:35:36.951Z,99.7650
2019-04-16T00:36:48.419Z,99.8978
2019-04-16T00:37:58.415Z,99.8566
2019-04-16T00:39:06.953Z,99.8856
2019-04-16T00:40:15.910Z,99.7650
2019-04-16T00:41:25.057Z,99.7574
2019-04-16T00:42:34.002Z,99.7284
2019-04-16T00:43:44.083Z,99.6612
2019-04-16T00:44:54.006Z,99.3851
2019-04-16T00:46:03.110Z,99.6323
2019-04-16T00:47:11.967Z,99.6963
2019-04-16T00:48:20.907Z,99.7345
2019-04-16T00:49:31.003Z,99.7055
2019-04-16T00:50:39.301Z,99.7604
2019-04-16T00:51:47.967Z,99.7742
2019-04-16T00:52:56.293Z,99.6918
2019-04-16T00:54:09.891Z,99.6155
2019-04-16T00:55:18.295Z,99.5453
2019-04-16T00:56:26.888Z,99.6277
2019-04-16T00:57:35.950Z,99.7208
2019-04-16T00:58:44.973Z,99.7879
2019-04-16T00:59:56.283Z,99.9664
2019-04-16T01:01:05.264Z,100.0000
2019-04-16T01:02:12.921Z,99.9115
2019-04-16T01:03:21.991Z,99.8718
2019-04-16T01:04:30.968Z,99.7192
2019-04-16T01:05:40.301Z,99.9405
2019-04-16T01:06:48.871Z,99.9268
2019-04-16T01:07:57.297Z,99.6963
2019-04-16T01:09:05.988Z,99.8795
2019-04-16T01:10:13.314Z,99.7421
2019-04-16T01:11:21.971Z,99.7513
2019-04-16T01:12:30.267Z,99.6887
2019-04-16T01:13:38.910Z,99.8032
2019-04-16T01:14:47.973Z,99.8016
2019-04-16T01:15:57.194Z,99.8718
2019-04-16T01:17:05.982Z,99.8169
2019-04-16T01:18:14.302Z,99.9664
2019-04-16T01:19:23.028Z,100.0000
2019-04-16T01:20:31.906Z,100.0000
2019-04-16T01:21:44.517Z,100.0000
2019-04-16T01:22:54.081Z,100.0000
2019-04-16T01:24:02.931Z,99.7925
2019-04-16T01:25:11.970Z,99.7742
2019-04-16T01:26:21.220Z,99.8520
2019-04-16T01:27:29.606Z,99.6338
2019-04-16T01:28:38.016Z,99.6185
2019-04-16T01:29:46.960Z,99.4507
2019-04-16T01:30:55.998Z,99.5956
2019-04-16T01:32:10.292Z,99.8337
2019-04-16T01:33:18.292Z,100.0000
2019-04-16T01:34:26.945Z,100.0000
2019-04-16T01:35:35.306Z,100.0000
2019-04-16T01:36:44.342Z,100.0000
2019-04-16T01:37:56.538Z,100.0000
2019-04-16T01:39:16.087Z,100.0000
2019-04-16T01:40:19.354Z,100.0000
2019-04-16T01:41:27.990Z,100.0000
2019-04-16T01:42:36.952Z,100.0000
2019-04-16T01:43:45.991Z,100.0000
2019-04-16T01:44:54.056Z,100.0000
2019-04-16T01:46:02.609Z,100.0000
2019-04-16T01:47:11.871Z,100.0000
2019-04-16T01:48:19.318Z,100.0000
2019-04-16T01:49:27.933Z,100.0000
2019-04-16T01:50:36.278Z,99.9222
2019-04-16T01:51:47.445Z,99.7620
2019-04-16T01:52:57.265Z,99.5880
2019-04-16T01:54:05.928Z,99.3774
2019-04-16T01:55:15.057Z,99.7421
2019-04-16T01:56:27.976Z,100.0000
2019-04-16T01:57:36.281Z,100.0000
2019-04-16T01:58:44.335Z,99.9985
2019-04-16T01:59:53.887Z,100.0000
2019-04-16T02:01:02.364Z,100.0000
2019-04-16T02:02:14.579Z,100.0000
2019-04-16T02:03:24.979Z,100.0000
2019-04-16T02:04:33.781Z,100.0000
2019-04-16T02:05:42.982Z,100.0000
2019-04-16T02:06:54.308Z,100.0000
2019-04-16T02:08:05.329Z,99.7925
2019-04-16T02:09:22.501Z,100.0000
2019-04-16T02:10:26.908Z,100.0000
2019-04-16T02:11:38.816Z,100.0000
2019-04-16T02:12:50.953Z,100.0000
2019-04-16T02:13:59.977Z,100.0000
2019-04-16T02:15:09.094Z,100.0000
2019-04-16T02:16:17.968Z,100.0000
2019-04-16T02:17:27.054Z,100.0000
2019-04-16T02:18:36.917Z,100.0000
2019-04-16T02:19:45.262Z,100.0000
2019-04-16T02:20:52.846Z,100.0000
2019-04-16T02:22:02.015Z,99.8474
2019-04-16T02:23:13.581Z,99.8489
2019-04-16T02:24:24.297Z,100.0000
2019-04-16T02:25:33.947Z,99.6460
2019-04-16T02:26:42.972Z,99.4827
2019-04-16T02:27:54.222Z,99.1516
2019-04-16T02:29:04.965Z,99.1669
2019-04-16T02:30:13.018Z,99.2203
2019-04-16T02:31:21.294Z,99.5697
2019-04-16T02:32:30.043Z,100.0000
2019-04-16T02:33:38.979Z,100.0000
2019-04-16T02:34:47.299Z,99.9359
2019-04-16T02:35:55.978Z,100.0000
2019-04-16T02:37:04.937Z,100.0000
2019-04-16T02:38:14.182Z,100.0000
2019-04-16T02:39:46.288Z,100.0000
2019-04-16T02:40:36.905Z,100.0000
2019-04-16T02:41:45.965Z,100.0000
2019-04-16T02:42:54.969Z,100.0000
2019-04-16T02:44:04.026Z,100.0000
2019-04-16T02:45:13.168Z,100.0000
2019-04-16T02:46:22.066Z,100.0000
2019-04-16T02:47:30.982Z,100.0000
2019-04-16T02:48:38.935Z,100.0000
2019-04-16T02:49:47.298Z,100.0000
2019-04-16T02:50:55.311Z,100.0000
2019-04-16T02:52:04.017Z,99.8581
2019-04-16T02:53:13.113Z,100.0000
2019-04-16T02:54:21.929Z,100.0000
2019-04-16T02:55:30.919Z,100.0000
2019-04-16T02:56:39.398Z,100.0000
2019-04-16T02:57:48.046Z,100.0000
2019-04-16T02:58:56.299Z,100.0000
2019-04-16T03:00:05.384Z,100.0000
2019-04-16T03:01:13.295Z,100.0000
2019-04-16T03:02:23.091Z,100.0000
2019-04-16T03:03:32.635Z,100.0000
2019-04-16T03:04:41.857Z,100.0000
2019-04-16T03:05:50.996Z,100.0000
2019-04-16T03:07:02.784Z,100.0000
2019-04-16T03:08:12.265Z,100.0000
2019-04-16T03:09:21.000Z,100.0000
2019-04-16T03:10:29.357Z,100.0000
2019-04-16T03:11:37.383Z,100.0000
2019-04-16T03:12:46.131Z,100.0000
2019-04-16T03:13:58.288Z,100.0000
2019-04-16T03:15:07.294Z,100.0000
2019-04-16T03:16:14.919Z,100.0000
2019-04-16T03:17:24.182Z,100.0000
2019-04-16T03:18:33.168Z,100.0000
2019-04-16T03:19:41.290Z,100.0000
2019-04-16T03:20:52.474Z,100.0000
2019-04-16T03:22:03.736Z,100.0000
2019-04-16T03:23:12.283Z,100.0000
2019-04-16T03:24:20.950Z,100.0000
2019-04-16T03:25:30.034Z,100.0000
2019-04-16T03:26:38.913Z,100.0000
2019-04-16T03:27:47.932Z,100.0000
2019-04-16T03:28:59.133Z,100.0000
2019-04-16T03:30:07.365Z,100.0000
2019-04-16T03:31:22.287Z,100.0000
2019-04-16T03:32:35.308Z,100.0000
2019-04-16T03:33:50.308Z,100.0000
2019-04-16T03:34:57.278Z,100.0000
2019-04-16T03:36:06.090Z,100.0000
2019-04-16T03:37:14.297Z,99.8444
2019-04-16T03:38:23.203Z,100.0000
2019-04-16T03:39:32.466Z,100.0000
2019-04-16T03:40:39.917Z,100.0000
2019-04-16T03:41:48.288Z,100.0000
2019-04-16T03:42:59.005Z,100.0000
2019-04-16T03:44:09.002Z,100.0000
2019-04-16T03:45:17.276Z,100.0000
2019-04-16T03:46:26.258Z,100.0000
2019-04-16T03:47:35.014Z,100.0000
2019-04-16T03:48:44.020Z,100.0000
2019-04-16T03:49:56.400Z,100.0000
2019-04-16T03:51:06.476Z,100.0000
2019-04-16T03:52:15.163Z,100.0000
2019-04-16T03:53:25.086Z,99.9939
2019-04-16T03:54:34.998Z,100.0000
2019-04-16T03:55:43.933Z,100.0000
2019-04-16T03:56:52.253Z,100.0000
2019-04-16T03:58:05.171Z,100.0000
2019-04-16T03:59:13.887Z,100.0000
2019-04-16T04:00:22.309Z,100.0000
2019-04-16T04:01:30.977Z,100.0000
2019-04-16T04:02:39.881Z,100.0000
2019-04-16T04:03:48.288Z,100.0000
2019-04-16T04:04:57.628Z,100.0000
2019-04-16T04:06:09.402Z,100.0000
2019-04-16T04:07:18.290Z,100.0000
2019-04-16T04:08:27.008Z,100.0000
2019-04-16T04:09:36.005Z,100.0000
2019-04-16T04:10:44.999Z,100.0000
2019-04-16T04:11:53.986Z,100.0000
2019-04-16T04:13:04.921Z,100.0000
2019-04-16T04:14:13.284Z,100.0000
2019-04-16T04:15:25.924Z,100.0000
2019-04-16T04:16:35.948Z,100.0000
2019-04-16T04:17:45.310Z,100.0000
2019-04-16T04:18:53.905Z,100.0000
2019-04-16T04:20:02.930Z,100.0000
2019-04-16T04:21:11.993Z,100.0000
2019-04-16T04:22:22.720Z,100.0000
2019-04-16T04:23:34.291Z,100.0000
2019-04-16T04:24:43.055Z,100.0000
2019-04-16T04:25:51.285Z,100.0000
2019-04-16T04:26:59.273Z,100.0000
2019-04-16T04:28:08.249Z,100.0000
2019-04-16T04:29:16.957Z,100.0000
2019-04-16T04:30:28.906Z,100.0000
2019-04-16T04:31:38.964Z,100.0000
2019-04-16T04:32:51.013Z,100.0000
2019-04-16T04:34:00.013Z,100.0000
2019-04-16T04:35:09.193Z,100.0000
2019-04-16T04:36:19.602Z,100.0000
2019-04-16T04:37:30.904Z,100.0000
2019-04-16T04:38:40.309Z,100.0000
2019-04-16T04:39:48.313Z,100.0000
2019-04-16T04:40:59.623Z,100.0000
2019-04-16T04:42:09.009Z,100.0000
2019-04-16T04:43:17.281Z,100.0000
2019-04-16T04:44:25.961Z,100.0000
2019-04-16T04:45:37.634Z,100.0000
2019-04-16T04:46:48.965Z,100.0000
2019-04-16T04:47:58.065Z,100.0000
2019-04-16T04:49:07.204Z,100.0000
2019-04-16T04:50:15.946Z,100.0000
2019-04-16T04:51:24.295Z,100.0000
2019-04-16T04:52:32.941Z,100.0000
2019-04-16T04:53:41.940Z,100.0000
2019-04-16T04:54:51.409Z,100.0000
2019-04-16T04:56:03.963Z,100.0000
2019-04-16T04:57:12.953Z,100.0000
2019-04-16T04:58:21.918Z,100.0000
2019-04-16T04:59:30.398Z,100.0000
2019-04-16T05:00:40.425Z,100.0000
2019-04-16T05:01:49.340Z,100.0000
2019-04-16T05:02:57.267Z,100.0000
2019-04-16T05:04:05.681Z,100.0000
2019-04-16T05:05:15.254Z,100.0000
2019-04-16T05:06:26.735Z,100.0000
2019-04-16T05:07:36.464Z,100.0000
2019-04-16T05:08:45.008Z,100.0000
2019-04-16T05:09:53.955Z,100.0000
2019-04-16T05:11:03.209Z,100.0000
2019-04-16T05:12:11.931Z,100.0000
2019-04-16T05:13:23.958Z,100.0000
2019-04-16T05:14:33.945Z,100.0000
2019-04-16T05:15:43.241Z,100.0000
2019-04-16T05:16:51.384Z,100.0000
2019-04-16T05:18:00.053Z,100.0000
2019-04-16T05:19:13.839Z,100.0000
2019-04-16T05:20:22.392Z,100.0000
2019-04-16T05:21:31.147Z,100.0000
2019-04-16T05:22:40.985Z,100.0000
2019-04-16T05:23:50.007Z,100.0000
2019-04-16T05:25:01.344Z,100.0000
2019-04-16T05:26:11.797Z,100.0000
2019-04-16T05:27:21.165Z,100.0000
2019-04-16T05:28:30.011Z,100.0000
2019-04-16T05:29:38.302Z,100.0000
2019-04-16T05:30:51.860Z,100.0000
2019-04-16T05:32:00.278Z,100.0000
2019-04-16T05:33:08.268Z,100.0000
2019-04-16T05:34:18.815Z,100.0000
2019-04-16T05:35:28.233Z,100.0000
2019-04-16T05:36:36.390Z,100.0000
2019-04-16T05:37:43.929Z,100.0000
2019-04-16T05:38:55.445Z,100.0000
2019-04-16T05:40:05.932Z,100.0000
2019-04-16T05:41:20.264Z,100.0000
2019-04-16T05:42:27.307Z,100.0000
2019-04-16T05:43:36.231Z,100.0000
2019-04-16T05:44:44.273Z,100.0000
2019-04-16T05:45:52.336Z,100.0000
2019-04-16T05:47:01.145Z,100.0000
2019-04-16T05:48:11.186Z,100.0000
2019-04-16T05:49:24.855Z,100.0000
2019-04-16T05:50:33.293Z,100.0000
2019-04-16T05:51:42.668Z,100.0000
2019-04-16T05:52:52.168Z,100.0000
2019-04-16T05:54:00.370Z,100.0000
2019-04-16T05:55:09.063Z,100.0000
2019-04-16T05:56:22.641Z,100.0000
2019-04-16T05:57:31.371Z,100.0000
2019-04-16T05:58:39.910Z,100.0000
2019-04-16T05:59:49.029Z,100.0000
2019-04-16T06:00:57.988Z,100.0000
2019-04-16T06:02:07.137Z,100.0000
2019-04-16T06:03:20.669Z,100.0000
2019-04-16T06:04:30.023Z,100.0000
2019-04-16T06:05:37.972Z,100.0000
2019-04-16T06:06:47.159Z,100.0000
2019-04-16T06:07:55.576Z,99.4781
2019-04-16T06:09:02.755Z,99.4873
2019-04-16T06:10:17.057Z,99.3957
2019-04-16T06:11:29.224Z,99.5972
2019-04-16T06:12:40.167Z,98.9197
2019-04-16T06:13:48.948Z,98.4146
2019-04-16T06:14:57.997Z,97.7432
2019-04-16T06:16:06.925Z,96.7086
2019-04-16T06:17:15.965Z,96.4782
2019-04-16T06:18:24.894Z,96.7941
2019-04-16T06:19:34.441Z,96.9650
2019-04-16T06:20:43.059Z,96.4096
2019-04-16T06:24:08.376Z,96.8719
2019-04-16T06:25:18.183Z,95.8205
2019-04-16T06:26:27.958Z,96.2310
2019-04-16T06:27:38.668Z,95.7046
2019-04-16T06:28:48.333Z,95.3353
2019-04-16T06:30:01.210Z,95.0286
2019-04-16T06:31:11.337Z,93.9803
2019-04-16T06:32:22.154Z,95.4849
2019-04-16T06:33:31.674Z,94.0200
2019-04-16T06:34:41.933Z,94.1909
2019-04-16T06:35:51.835Z,94.0169
2019-04-16T06:37:01.958Z,93.4081
2019-04-16T06:38:12.053Z,93.6034
2019-04-16T06:39:22.045Z,94.4778
2019-04-16T06:40:32.852Z,93.6584
2019-04-16T06:41:47.665Z,94.6944
2019-04-16T06:42:58.001Z,95.5810
2019-04-16T06:44:09.878Z,96.4752
2019-04-16T06:45:20.499Z,96.5377
2019-04-16T06:46:29.755Z,96.4141
2019-04-16T06:47:41.782Z,95.0729
2019-04-16T06:48:51.290Z,97.3449
2019-04-16T06:50:00.306Z,95.4574
2019-04-16T06:51:12.507Z,94.8501
2019-04-16T06:52:21.909Z,93.7911
2019-04-16T06:53:32.317Z,94.3954
2019-04-16T06:54:45.310Z,94.0017
2019-04-16T06:55:56.786Z,94.3084
2019-04-16T06:57:05.949Z,93.5409
2019-04-16T06:58:16.428Z,92.6940
2019-04-16T06:59:29.337Z,89.8726
2019-04-16T07:00:40.005Z,92.0699
2019-04-16T07:01:50.068Z,90.3777
2019-04-16T07:03:02.468Z,92.8862
2019-04-16T07:04:13.005Z,90.5226
2019-04-16T07:05:33.266Z,91.2871
2019-04-16T07:06:43.730Z,90.8080
2019-04-16T07:07:54.237Z,88.9570
2019-04-16T07:09:04.390Z,89.7093
2019-04-16T07:10:15.047Z,87.3732
2019-04-16T07:11:26.161Z,88.1285
2019-04-16T07:13:58.362Z,88.0507
2019-04-16T07:15:07.699Z,89.6223
2019-04-16T07:16:16.330Z,83.9490
2019-04-16T07:17:26.052Z,85.7267
2019-04-16T07:18:38.579Z,83.8270
2019-04-16T07:19:48.289Z,86.5400
2019-04-16T07:20:57.355Z,86.0182
2019-04-16T07:22:07.040Z,86.6560
2019-04-16T07:23:17.767Z,84.8981
2019-04-16T07:24:30.807Z,84.1459
2019-04-16T07:25:44.144Z,84.3290
2019-04-16T07:26:56.618Z,85.1163
2019-04-16T07:28:09.272Z,83.2395
2019-04-16T07:29:24.307Z,83.7079
2019-04-16T07:30:38.419Z,83.4318
2019-04-16T07:31:53.251Z,84.3168
2019-04-16T07:33:05.524Z,83.9139
2019-04-16T07:34:14.289Z,86.1555
2019-04-16T07:35:27.889Z,86.0685
2019-04-16T07:36:42.101Z,85.7664
2019-04-16T07:37:53.018Z,85.9419
2019-04-16T07:39:07.631Z,86.4118
2019-04-16T07:40:16.369Z,85.1118
2019-04-16T07:41:27.295Z,85.2415
2019-04-16T07:42:51.692Z,84.6189
2019-04-16T07:43:57.218Z,84.4953
2019-04-16T07:45:11.431Z,86.1234
2019-04-16T07:46:21.392Z,85.1911
2019-04-16T07:47:32.966Z,84.9622
2019-04-16T07:48:45.984Z,86.8559
2019-04-16T07:49:59.855Z,84.5716
2019-04-16T07:51:10.360Z,85.6474
2019-04-16T07:52:21.334Z,85.6443
2019-04-16T07:53:31.538Z,84.5670
2019-04-16T07:54:40.311Z,80.9277
2019-04-16T07:55:49.431Z,82.0035
2019-04-16T07:56:58.314Z,82.1591
2019-04-16T07:58:08.365Z,83.2349
2019-04-16T07:59:19.026Z,80.9613
2019-04-16T08:00:29.119Z,82.1729
2019-04-16T08:01:39.932Z,79.9863
2019-04-16T08:02:53.867Z,78.5748
2019-04-16T08:04:03.612Z,78.5611
2019-04-16T08:05:12.328Z,78.0117
2019-04-16T08:06:21.334Z,77.9034
2019-04-16T08:07:32.251Z,78.0026
2019-04-16T08:08:42.646Z,79.3088
2019-04-16T08:09:51.302Z,76.4736
2019-04-16T08:12:33.326Z,77.5051
2019-04-16T08:13:45.764Z,76.1639
2019-04-16T08:14:54.362Z,77.8439
2019-04-16T08:16:04.317Z,79.1424
2019-04-16T08:17:14.031Z,77.2763
2019-04-16T08:19:44.797Z,79.8062
2019-04-16T08:21:01.701Z,77.4044
2019-04-16T08:22:15.530Z,76.8093
2019-04-16T08:23:25.077Z,75.7290
2019-04-16T08:24:34.393Z,76.0021
2019-04-16T08:25:44.761Z,76.4706
2019-04-16T08:26:56.254Z,76.5484
2019-04-16T08:28:09.443Z,76.4111
2019-04-16T08:29:18.501Z,74.8928
2019-04-16T08:30:27.391Z,75.3903
2019-04-16T08:33:05.481Z,77.2625
2019-04-16T08:35:39.339Z,76.2875
2019-04-16T08:38:20.674Z,72.7687
2019-04-16T08:39:29.375Z,73.9498
2019-04-16T08:42:06.817Z,75.9121
2019-04-16T08:43:22.356Z,75.9014
2019-04-16T08:44:35.796Z,73.4096
2019-04-16T08:49:54.081Z,71.0307
2019-04-16T08:52:26.290Z,70.7042
2019-04-16T08:54:55.400Z,70.2983
2019-04-16T08:56:05.020Z,72.0500
2019-04-16T08:57:18.041Z,70.9758
2019-04-16T08:59:54.858Z,71.3420
2019-04-16T09:01:04.296Z,72.8511
2019-04-16T09:02:13.816Z,73.4615
2019-04-16T09:03:26.716Z,70.1412
2019-04-16T09:04:37.311Z,71.1482
2019-04-16T09:05:46.293Z,70.5959
2019-04-16T09:07:09.634Z,71.8807
2019-04-16T09:08:13.943Z,72.9076
2019-04-16T09:09:25.555Z,69.1707
2019-04-16T09:10:34.390Z,70.1183
2019-04-16T09:11:44.194Z,71.3237
2019-04-16T09:13:03.319Z,66.7186
2019-04-16T09:14:16.841Z,68.9845
2019-04-16T09:15:29.343Z,70.4845
2019-04-16T09:16:45.219Z,71.6808
2019-04-16T09:17:57.093Z,70.5852
2019-04-16T09:19:08.593Z,68.3436
2019-04-16T09:20:17.272Z,70.3609
2019-04-16T09:21:31.255Z,69.2042
2019-04-16T09:24:08.862Z,71.3191
2019-04-16T09:25:22.987Z,68.9204
2019-04-16T09:26:36.437Z,64.7730
2019-04-16T09:30:30.925Z,64.0848
2019-04-16T09:33:01.886Z,63.7690
2019-04-16T09:34:10.481Z,65.5604
2019-04-16T09:35:20.752Z,63.7705
2019-04-16T09:40:36.588Z,65.9480
2019-04-16T09:42:01.755Z,65.2384
2019-04-16T09:43:17.441Z,61.2757
2019-04-16T09:47:16.733Z,60.2411
2019-04-16T09:52:38.562Z,59.7086
2019-04-16T09:55:19.634Z,63.1846
2019-04-16T09:56:30.116Z,59.4675
2019-04-16T09:57:39.994Z,62.9877
2019-04-16T10:03:01.356Z,62.7359
2019-04-16T10:04:15.655Z,57.9416
2019-04-16T10:09:37.586Z,64.5899
2019-04-16T10:13:35.747Z,60.0534
2019-04-16T10:14:48.576Z,59.1134
2019-04-16T10:15:57.403Z,57.3465
2019-04-16T10:17:06.341Z,60.3769
2019-04-16T10:19:56.724Z,57.1542
2019-04-16T10:21:08.474Z,55.4238
2019-04-16T10:22:17.310Z,55.5932
2019-04-16T10:23:29.673Z,55.9930
2019-04-16T10:24:59.775Z,55.4376
2019-04-16T10:26:08.348Z,57.1450
2019-04-16T10:28:39.346Z,57.0855
2019-04-16T10:31:14.699Z,55.6313
2019-04-16T10:38:16.410Z,50.6828
2019-04-16T10:39:26.358Z,52.8939
2019-04-16T10:40:39.933Z,56.1028
2019-04-16T10:43:09.336Z,58.4817
2019-04-16T10:45:51.170Z,51.2993
2019-04-16T10:47:01.492Z,51.8456
2019-04-16T10:49:30.473Z,52.5093
2019-04-16T10:52:04.855Z,52.6238
2019-04-16T10:54:39.817Z,54.5052
2019-04-16T10:55:50.557Z,52.1019
2019-04-16T10:56:59.313Z,50.3120
2019-04-16T10:58:10.147Z,49.9809
2019-04-16T10:59:23.027Z,48.5954
2019-04-16T11:00:39.373Z,53.5439
2019-04-16T11:04:35.953Z,49.2454
2019-04-16T11:05:45.372Z,53.0526
2019-04-16T11:06:58.927Z,52.3064
2019-04-16T11:08:09.431Z,50.3670
2019-04-16T11:09:22.097Z,53.8262
2019-04-16T11:10:31.345Z,52.3033
2019-04-16T11:11:44.898Z,49.5781
2019-04-16T11:12:54.317Z,54.4762
2019-04-16T11:14:03.376Z,51.2093
2019-04-16T11:15:35.246Z,50.8736
2019-04-16T11:16:45.032Z,50.6310
2019-04-16T11:19:24.561Z,54.5190
2019-04-16T11:20:34.643Z,53.7026
2019-04-16T11:21:44.713Z,52.5963
2019-04-16T11:22:56.041Z,50.8110
2019-04-16T11:24:08.191Z,52.6223
2019-04-16T11:25:21.218Z,51.5969
2019-04-16T11:26:32.950Z,51.9448
2019-04-16T11:27:42.445Z,51.8776
2019-04-16T11:31:35.345Z,56.8292
2019-04-16T11:32:43.667Z,52.6864
2019-04-16T11:39:29.250Z,51.3771
2019-04-16T11:42:13.101Z,50.7271
2019-04-16T11:43:25.747Z,51.0033
2019-04-16T11:44:38.178Z,48.5939
2019-04-16T11:45:48.136Z,51.7113
2019-04-16T11:46:58.409Z,49.9352
2019-04-16T11:48:07.381Z,50.1549
2019-04-16T11:49:18.294Z,48.8411
2019-04-16T11:50:29.650Z,49.0669
2019-04-16T11:51:38.250Z,46.8818
2019-04-16T11:52:48.364Z,49.5369
2019-04-16T11:54:00.699Z,53.9513
2019-04-16T11:55:10.067Z,54.4213
2019-04-16T11:56:22.497Z,56.1059
2019-04-16T11:57:37.069Z,51.6289
2019-04-16T11:58:47.541Z,55.0851
2019-04-16T12:00:06.714Z,53.5393
2019-04-16T12:01:11.354Z,54.1695
2019-04-16T12:02:20.557Z,54.4442
2019-04-16T12:03:34.928Z,54.4274
2019-04-16T12:04:55.856Z,56.1929
2019-04-16T12:06:10.623Z,52.6085
2019-04-16T12:07:20.003Z,53.6950
2019-04-16T12:08:30.004Z,53.6751
2019-04-16T12:09:39.358Z,53.9010
2019-04-16T12:10:49.381Z,58.3734
2019-04-16T12:12:00.281Z,56.9223
2019-04-16T12:13:09.909Z,55.2087
2019-04-16T12:14:30.775Z,52.3949
2019-04-16T12:15:36.541Z,55.8831
2019-04-16T12:16:46.101Z,56.2219
2019-04-16T12:17:55.487Z,55.0256
2019-04-16T12:19:05.243Z,54.5373
2019-04-16T12:20:14.386Z,51.0857
2019-04-16T12:21:24.244Z,54.2214
2019-04-16T12:22:36.962Z,53.0083
2019-04-16T12:23:47.090Z,52.8695
2019-04-16T12:24:57.530Z,54.1115
2019-04-16T12:26:09.404Z,56.9345
2019-04-16T12:27:19.747Z,55.0362
2019-04-16T12:28:30.123Z,54.4366
2019-04-16T12:29:41.435Z,55.7824
2019-04-16T12:30:51.365Z,57.2656
2019-04-16T12:32:03.588Z,55.8968
2019-04-16T12:33:15.198Z,57.1511
2019-04-16T12:34:25.736Z,60.0290
2019-04-16T12:35:35.657Z,51.5206
2019-04-16T12:36:46.859Z,53.8598
2019-04-16T12:37:58.433Z,53.3471
2019-04-16T12:39:10.140Z,55.5810
2019-04-16T12:40:21.172Z,53.9086
2019-04-16T12:41:30.298Z,50.7225
2019-04-16T12:42:42.875Z,57.0993
2019-04-16T12:43:51.789Z,52.7687
